Kezdőlap
METAR-TAF:

METAR-TAF

Repülőterek :

Bangkok, Thaiföld

földrajzi szélesség: 13-54-45N, földrajzi hosszúság: 100-36-24E, magasság: 4 m

Jelenlegi meteorológiai megfigyelések

A jelentés 39 perccel ezelõtt készült, 05:00 UTC
Dél-délnyugati szél 10 kt, déli és nyugat-délnyugati között változik
Hőmérséklet 38°C
Páratartalom 48%
Légköri nyomás 1008 hPa
Látótávolság 10 km, vagy több
Kevés felhő 2000 lábon

METAR: VTBD 220500Z 21010KT 180V250 9999 FEW020 38/25 Q1008 NOSIG

Idő: 12:39 (05:39 UTC)

Előrejelzés

A jelentés 6 órával és 39 perccel ezelõtt készült, 23:00 UTC
Az előrejelzés 22-én 00 óra UTC és 23-én 06 óra UTC között érvényes
Déli szél 8 kt
Látótávolság 10 km, vagy több
Kevés felhő 2000 lábon

TAF: VTBD 212300Z 2200/2306 18008KT 9999 FEW020

Meteorológiai megfigyelések és előrejelzések több, mint 4000 repülőtéren (METAR és TAF jelentéseket).

A térképen piros és sárga pontok jelzik az elérhető meteorológiai állomásokat.

Mozgassa az egeret a pont fölött, hogy megjelenjen az állomás neve.

Azután kattintson az időjárási megfigyelések és előrejelzések megtekintéséhez.

A térkép megváltoztatása: kattintson a fekete keresztel jelölt zöld gombra ráközelítéshez, a vonallal jelölt zöld gombra távolításhoz, vagy a zöld nyilakra a szomszédos térképek eléréséhez.


METAR-TAF: